createdAt,value
2019-05-03T00:02:25.540Z,65.21
2019-05-03T00:04:59.888Z,65.68
2019-05-03T00:07:29.363Z,65.70
2019-05-03T00:09:58.884Z,65.87
2019-05-03T00:12:28.350Z,65.78
2019-05-03T00:15:02.803Z,65.54
2019-05-03T00:17:32.541Z,65.87
2019-05-03T00:20:02.364Z,65.73
2019-05-03T00:22:32.359Z,65.90
2019-05-03T00:25:06.029Z,66.70
2019-05-03T00:27:33.108Z,66.59
2019-05-03T00:30:02.931Z,66.22
2019-05-03T00:32:32.514Z,66.67
2019-05-03T00:35:04.873Z,67.30
2019-05-03T00:37:36.215Z,66.92
2019-05-03T00:40:07.626Z,67.04
2019-05-03T00:42:37.039Z,67.37
2019-05-03T00:45:06.900Z,67.91
2019-05-03T00:47:36.348Z,68.01
2019-05-03T00:50:06.178Z,68.81
2019-05-03T00:52:35.584Z,69.32
2019-05-03T00:55:15.739Z,69.31
2019-05-03T00:57:36.579Z,69.46
2019-05-03T01:00:06.160Z,70.20
2019-05-03T01:02:35.553Z,70.22
2019-05-03T01:05:05.089Z,70.36
2019-05-03T01:07:34.520Z,71.13
2019-05-03T01:10:05.942Z,71.94
2019-05-03T01:12:35.360Z,72.15
2019-05-03T01:15:06.709Z,72.88
2019-05-03T01:17:36.857Z,73.54
2019-05-03T01:20:06.872Z,73.76
2019-05-03T01:22:36.317Z,74.27
2019-05-03T01:25:05.835Z,74.58
2019-05-03T01:27:35.356Z,75.65
2019-05-03T01:30:05.170Z,75.75
2019-05-03T01:32:34.698Z,76.67
2019-05-03T01:35:04.313Z,77.35
2019-05-03T01:37:33.886Z,77.68
2019-05-03T01:40:03.323Z,78.90
2019-05-03T01:42:32.938Z,79.79
2019-05-03T01:45:02.722Z,80.33
2019-05-03T01:47:41.930Z,80.75
2019-05-03T01:50:22.890Z,80.97
2019-05-03T01:52:53.156Z,81.42
2019-05-03T01:55:24.760Z,82.33
2019-05-03T01:57:54.195Z,83.09
2019-05-03T02:00:26.455Z,82.46
2019-05-03T02:03:06.124Z,82.44
2019-05-03T02:05:51.985Z,82.91
2019-05-03T02:08:22.001Z,83.06
2019-05-03T02:10:51.834Z,83.21
2019-05-03T02:13:22.923Z,84.11
2019-05-03T02:15:52.852Z,84.22
2019-05-03T02:18:22.474Z,84.12
2019-05-03T02:20:52.541Z,84.87
2019-05-03T02:23:22.403Z,85.30
2019-05-03T02:25:58.381Z,84.70
2019-05-03T02:28:23.199Z,84.55
2019-05-03T02:30:53.424Z,84.30
2019-05-03T02:33:23.517Z,84.16
2019-05-03T02:35:53.587Z,84.33
2019-05-03T02:38:23.549Z,84.55
2019-05-03T02:40:53.392Z,84.99
2019-05-03T02:43:27.450Z,85.32
2019-05-03T02:46:07.509Z,85.38
2019-05-03T02:48:46.739Z,86.35
2019-05-03T02:51:16.154Z,86.35
2019-05-03T02:53:45.942Z,86.66
2019-05-03T02:56:22.264Z,86.95
2019-05-03T02:58:46.629Z,86.71
2019-05-03T03:01:16.485Z,87.38
2019-05-03T03:03:46.049Z,87.97
2019-05-03T03:06:15.860Z,87.61
2019-05-03T03:08:45.623Z,88.80
2019-05-03T03:11:15.608Z,90.11
2019-05-03T03:13:45.803Z,91.16
2019-05-03T03:16:17.219Z,93.06
2019-05-03T03:18:46.515Z,93.92
2019-05-03T03:21:18.146Z,94.57
2019-05-03T03:24:13.017Z,95.11
2019-05-03T03:26:44.491Z,96.63
2019-05-03T03:29:16.203Z,96.55
2019-05-03T03:32:18.358Z,96.45
2019-05-03T03:35:03.390Z,96.56
2019-05-03T03:37:29.901Z,96.62
2019-05-03T03:39:59.412Z,96.30
2019-05-03T03:42:29.144Z,95.02
2019-05-03T03:44:58.579Z,95.06
2019-05-03T03:47:28.090Z,94.70
2019-05-03T03:49:57.517Z,94.02
2019-05-03T03:52:26.957Z,92.19
2019-05-03T03:54:56.368Z,90.52
2019-05-03T03:57:25.806Z,88.93
2019-05-03T03:59:56.310Z,88.34
2019-05-03T04:02:26.640Z,86.62
2019-05-03T04:04:56.406Z,84.61
2019-05-03T04:07:26.353Z,83.69
2019-05-03T04:09:56.267Z,80.22
2019-05-03T04:12:26.761Z,78.56
2019-05-03T04:15:05.446Z,76.12
2019-05-03T04:17:58.714Z,74.54
2019-05-03T04:20:32.571Z,72.71
2019-05-03T04:23:02.062Z,71.21
2019-05-03T04:25:31.503Z,67.83
2019-05-03T04:28:00.928Z,58.44
2019-05-03T04:30:30.380Z,52.93
2019-05-03T04:32:59.807Z,46.92
2019-05-03T04:35:29.327Z,43.40
2019-05-03T04:37:58.752Z,40.10
2019-05-03T04:40:28.268Z,38.09
2019-05-03T04:42:57.698Z,36.22
2019-05-03T04:45:27.121Z,35.32
2019-05-03T04:47:56.523Z,34.05
2019-05-03T04:50:26.112Z,32.18
2019-05-03T04:52:56.612Z,31.74
2019-05-03T04:55:26.940Z,30.71
2019-05-03T04:57:56.556Z,30.10
2019-05-03T05:00:26.135Z,28.62
2019-05-03T05:02:55.630Z,29.26
2019-05-03T05:05:26.085Z,30.27
2019-05-03T05:07:56.123Z,30.22
2019-05-03T05:10:26.250Z,29.99
2019-05-03T05:12:55.912Z,30.15
2019-05-03T05:15:26.407Z,29.91
2019-05-03T05:18:16.068Z,29.76
2019-05-03T05:20:50.736Z,29.01
2019-05-03T05:23:20.169Z,29.33
2019-05-03T05:25:55.202Z,29.36
2019-05-03T05:28:36.983Z,28.34
2019-05-03T05:31:06.450Z,28.27
2019-05-03T05:33:35.905Z,27.78
2019-05-03T05:36:05.332Z,28.14
2019-05-03T05:38:34.826Z,26.52
2019-05-03T05:41:05.319Z,26.03
2019-05-03T05:43:35.683Z,25.94
2019-05-03T05:46:05.772Z,26.72
2019-05-03T05:48:40.442Z,28.61
2019-05-03T05:51:09.938Z,27.47
2019-05-03T05:53:39.373Z,27.88
2019-05-03T05:56:37.016Z,26.92
2019-05-03T05:59:14.827Z,26.62
2019-05-03T06:01:55.453Z,26.86
2019-05-03T06:04:24.682Z,28.01
2019-05-03T06:07:06.165Z,26.76
2019-05-03T06:09:45.178Z,26.94
2019-05-03T06:12:20.384Z,26.57
2019-05-03T06:14:54.416Z,25.63
2019-05-03T06:17:37.447Z,26.17
2019-05-03T06:20:25.776Z,25.66
2019-05-03T06:22:59.203Z,25.40
2019-05-03T06:25:36.282Z,25.31
2019-05-03T06:28:18.253Z,25.29
2019-05-03T06:31:00.242Z,24.09
2019-05-03T06:33:29.655Z,21.85
2019-05-03T06:35:59.103Z,22.56
2019-05-03T06:38:28.537Z,22.99
2019-05-03T06:40:57.973Z,23.56
2019-05-03T06:43:27.386Z,23.92
2019-05-03T06:45:56.801Z,24.36
2019-05-03T06:48:27.969Z,25.46
2019-05-03T06:51:00.317Z,26.87
2019-05-03T06:53:28.572Z,28.86
2019-05-03T06:55:57.997Z,32.48
2019-05-03T06:58:33.106Z,32.30
2019-05-03T07:01:15.618Z,34.31
2019-05-03T07:03:50.094Z,35.47
2019-05-03T07:06:40.140Z,36.25
2019-05-03T07:09:14.916Z,36.24
2019-05-03T07:11:45.115Z,36.12
2019-05-03T07:14:15.529Z,35.96
2019-05-03T07:16:45.185Z,34.62
2019-05-03T07:19:14.852Z,34.30
2019-05-03T07:21:44.725Z,34.33
2019-05-03T07:24:14.752Z,34.52
2019-05-03T07:26:44.847Z,34.03
2019-05-03T07:29:15.202Z,31.60
2019-05-03T07:31:44.904Z,29.77
2019-05-03T07:34:15.645Z,31.41
2019-05-03T07:36:45.259Z,31.22
2019-05-03T07:39:14.693Z,29.73
2019-05-03T07:41:44.644Z,32.56
2019-05-03T07:44:15.199Z,32.09
2019-05-03T07:46:45.228Z,33.02
2019-05-03T07:49:15.359Z,32.78
2019-05-03T07:51:44.955Z,32.84
2019-05-03T07:54:15.681Z,33.60
2019-05-03T07:56:59.455Z,33.38
2019-05-03T07:59:28.856Z,34.08
2019-05-03T08:01:58.857Z,34.29
2019-05-03T08:04:28.331Z,35.07
2019-05-03T08:06:57.745Z,33.94
2019-05-03T08:09:27.152Z,34.50
2019-05-03T08:11:58.383Z,34.38
2019-05-03T08:14:27.821Z,34.89
2019-05-03T08:16:57.315Z,35.13
2019-05-03T08:19:27.191Z,36.50
2019-05-03T08:21:56.835Z,36.20
2019-05-03T08:24:26.225Z,34.99
2019-05-03T08:26:55.883Z,36.06
2019-05-03T08:29:25.359Z,36.41
2019-05-03T08:32:19.684Z,36.04
2019-05-03T08:35:11.058Z,35.49
2019-05-03T08:37:54.809Z,35.38
2019-05-03T08:40:25.986Z,35.51
2019-05-03T08:42:55.412Z,35.15
2019-05-03T08:45:25.599Z,34.57
2019-05-03T08:47:55.465Z,34.87
2019-05-03T08:50:25.660Z,33.70
2019-05-03T08:52:55.828Z,33.93
2019-05-03T08:55:25.492Z,34.89
2019-05-03T08:57:55.230Z,35.36
2019-05-03T09:00:26.699Z,34.29
2019-05-03T09:02:56.124Z,34.73
2019-05-03T09:05:25.534Z,33.16
2019-05-03T09:07:55.050Z,34.63
2019-05-03T09:10:46.544Z,36.56
2019-05-03T09:13:20.608Z,37.00
2019-05-03T09:15:50.740Z,34.59
2019-05-03T09:18:20.148Z,32.17
2019-05-03T09:20:49.621Z,32.84
2019-05-03T09:23:19.059Z,31.67
2019-05-03T09:25:48.474Z,32.24
2019-05-03T09:28:17.925Z,32.88
2019-05-03T09:30:47.340Z,30.75
2019-05-03T09:33:16.846Z,31.03
2019-05-03T09:35:46.209Z,32.52
2019-05-03T09:38:15.634Z,30.06
2019-05-03T09:40:45.509Z,29.85
2019-05-03T09:43:15.280Z,30.34
2019-05-03T09:45:45.676Z,31.94
2019-05-03T09:48:15.453Z,31.05
2019-05-03T09:50:45.265Z,29.75
2019-05-03T09:53:17.111Z,30.62
2019-05-03T09:55:46.530Z,29.62
2019-05-03T09:58:15.972Z,29.08
2019-05-03T10:00:46.406Z,29.42
2019-05-03T10:03:15.812Z,28.50
2019-05-03T10:05:45.823Z,28.99
2019-05-03T10:08:15.895Z,28.53
2019-05-03T10:11:05.315Z,28.31
2019-05-03T10:13:35.414Z,28.48
2019-05-03T10:16:06.187Z,29.12
2019-05-03T10:18:35.947Z,27.98
2019-05-03T10:21:05.740Z,27.16
2019-05-03T10:23:41.778Z,26.97
2019-05-03T10:26:11.274Z,26.34
2019-05-03T10:28:40.712Z,26.37
2019-05-03T10:31:10.112Z,27.12
2019-05-03T10:33:47.232Z,27.86
2019-05-03T10:36:16.663Z,26.94
2019-05-03T10:38:46.347Z,27.68
2019-05-03T10:41:15.726Z,28.11
2019-05-03T10:43:45.424Z,27.25
2019-05-03T10:46:16.011Z,27.85
2019-05-03T10:48:45.628Z,26.97
2019-05-03T10:51:15.886Z,26.53
2019-05-03T10:53:48.661Z,26.64
2019-05-03T10:56:23.200Z,24.79
2019-05-03T10:58:56.244Z,24.08
2019-05-03T11:01:45.092Z,23.99
2019-05-03T11:04:14.765Z,24.09
2019-05-03T11:06:45.796Z,22.78
2019-05-03T11:09:15.512Z,21.79
2019-05-03T11:11:45.493Z,22.38
2019-05-03T11:14:15.138Z,22.24
2019-05-03T11:16:46.018Z,22.20
2019-05-03T11:19:15.676Z,21.96
2019-05-03T11:21:45.514Z,22.01
2019-05-03T11:24:15.220Z,22.27
2019-05-03T11:26:46.303Z,20.88
2019-05-03T11:29:15.971Z,20.98
2019-05-03T11:32:16.541Z,20.80
2019-05-03T11:35:07.857Z,21.30
2019-05-03T11:37:45.358Z,21.82
2019-05-03T11:40:15.719Z,22.06
2019-05-03T11:42:45.893Z,20.32
2019-05-03T11:45:15.454Z,20.14
2019-05-03T11:47:45.707Z,19.96
2019-05-03T11:50:15.377Z,19.03
2019-05-03T11:52:47.225Z,19.01
2019-05-03T11:55:16.206Z,18.67
2019-05-03T11:57:45.688Z,20.14
2019-05-03T12:00:18.173Z,19.30
2019-05-03T12:03:12.747Z,19.97
2019-05-03T12:05:44.754Z,20.57
2019-05-03T12:08:14.734Z,19.76
2019-05-03T12:10:55.393Z,19.67
2019-05-03T12:13:24.707Z,19.67
2019-05-03T12:15:55.252Z,18.13
2019-05-03T12:18:25.680Z,19.62
2019-05-03T12:20:57.241Z,19.94
2019-05-03T12:23:27.397Z,19.16
2019-05-03T12:25:59.040Z,18.52
2019-05-03T12:28:29.010Z,18.26
2019-05-03T12:30:58.440Z,19.41
2019-05-03T12:33:27.864Z,19.40
2019-05-03T12:35:57.289Z,19.82
2019-05-03T12:38:26.717Z,19.53
2019-05-03T12:40:56.120Z,20.54
2019-05-03T12:43:25.768Z,18.30
2019-05-03T12:45:55.261Z,18.49
2019-05-03T12:48:24.731Z,18.42
2019-05-03T12:50:54.574Z,17.32
2019-05-03T12:53:24.686Z,17.25
2019-05-03T12:55:54.098Z,16.83
2019-05-03T12:58:25.543Z,16.38
2019-05-03T13:01:15.708Z,16.22
2019-05-03T13:03:58.765Z,17.50
2019-05-03T13:06:29.841Z,17.01
2019-05-03T13:08:59.328Z,16.70
2019-05-03T13:11:29.642Z,16.85
2019-05-03T13:13:59.046Z,16.91
2019-05-03T13:16:28.488Z,17.58
2019-05-03T13:18:57.906Z,16.96
2019-05-03T13:21:27.343Z,17.67
2019-05-03T13:23:56.770Z,17.66
2019-05-03T13:26:26.215Z,17.49
2019-05-03T13:28:55.640Z,17.78
2019-05-03T13:31:25.199Z,19.27
2019-05-03T13:33:55.017Z,18.46
2019-05-03T13:36:25.303Z,18.33
2019-05-03T13:39:09.879Z,18.76
2019-05-03T13:41:26.060Z,18.42
2019-05-03T13:43:55.467Z,17.80
2019-05-03T13:46:25.017Z,18.08
2019-05-03T13:48:55.489Z,17.41
2019-05-03T13:51:25.388Z,17.12
2019-05-03T13:53:55.182Z,16.50
2019-05-03T13:56:27.424Z,17.28
2019-05-03T13:58:56.836Z,18.85
2019-05-03T14:01:26.262Z,19.37
2019-05-03T14:03:55.711Z,21.39
2019-05-03T14:06:25.125Z,23.36
2019-05-03T14:08:54.953Z,22.91
2019-05-03T14:11:25.418Z,24.06
2019-05-03T14:13:55.320Z,24.92
2019-05-03T14:16:25.936Z,24.67
2019-05-03T14:18:59.079Z,25.87
2019-05-03T14:21:34.663Z,26.39
2019-05-03T14:24:09.914Z,27.38
2019-05-03T14:26:39.996Z,28.87
2019-05-03T14:29:09.650Z,30.33
2019-05-03T14:31:39.214Z,29.64
2019-05-03T14:34:08.755Z,29.71
2019-05-03T14:36:38.226Z,28.33
2019-05-03T14:39:10.041Z,29.63
2019-05-03T14:41:39.839Z,30.86
2019-05-03T14:44:09.274Z,31.33
2019-05-03T14:46:38.683Z,30.20
2019-05-03T14:49:08.526Z,31.56
2019-05-03T14:51:37.975Z,31.86
2019-05-03T14:54:08.175Z,31.11
2019-05-03T14:56:57.827Z,30.57
2019-05-03T14:59:46.107Z,32.58
2019-05-03T15:02:24.564Z,32.15
2019-05-03T15:04:54.874Z,31.97
2019-05-03T15:07:25.555Z,31.69
2019-05-03T15:09:55.393Z,31.07
2019-05-03T15:12:25.297Z,32.89
2019-05-03T15:14:54.819Z,32.48
2019-05-03T15:17:24.733Z,32.18
2019-05-03T15:19:54.721Z,32.38
2019-05-03T15:22:25.369Z,33.13
2019-05-03T15:24:54.812Z,32.79
2019-05-03T15:27:26.193Z,33.47
2019-05-03T15:29:55.685Z,32.72
2019-05-03T15:32:25.125Z,33.07
2019-05-03T15:34:55.388Z,32.58
2019-05-03T15:37:25.486Z,32.88
2019-05-03T15:39:55.210Z,32.85
2019-05-03T15:42:25.710Z,33.39
2019-05-03T15:45:17.224Z,33.46
2019-05-03T15:48:08.814Z,34.12
2019-05-03T15:50:38.281Z,34.18
2019-05-03T15:53:07.706Z,34.62
2019-05-03T15:55:37.180Z,34.66
2019-05-03T15:58:06.619Z,35.55
2019-05-03T16:00:36.036Z,36.30
2019-05-03T16:03:10.591Z,35.77
2019-05-03T16:05:36.650Z,36.40
2019-05-03T16:08:06.097Z,37.69
2019-05-03T16:10:36.471Z,38.06
2019-05-03T16:13:05.928Z,38.98
2019-05-03T16:15:35.414Z,38.81
2019-05-03T16:18:05.232Z,39.74
2019-05-03T16:20:39.182Z,39.96
2019-05-03T16:23:05.799Z,40.98
2019-05-03T16:25:35.617Z,41.94
2019-05-03T16:28:20.496Z,42.17
2019-05-03T16:30:56.351Z,42.68
2019-05-03T16:33:27.862Z,42.67
2019-05-03T16:35:56.913Z,43.33
2019-05-03T16:38:26.360Z,43.08
2019-05-03T16:40:55.795Z,43.70
2019-05-03T16:43:25.769Z,44.53
2019-05-03T16:45:55.321Z,45.24
2019-05-03T16:48:24.856Z,45.63
2019-05-03T16:50:54.246Z,45.67
2019-05-03T16:53:25.384Z,45.75
2019-05-03T16:55:54.912Z,45.39
2019-05-03T16:58:24.785Z,46.46
2019-05-03T17:00:55.285Z,47.68
2019-05-03T17:03:38.435Z,49.59
2019-05-03T17:06:20.664Z,50.80
2019-05-03T17:09:08.954Z,51.62
2019-05-03T17:11:38.584Z,52.45
2019-05-03T17:14:08.056Z,53.72
2019-05-03T17:16:37.481Z,55.12
2019-05-03T17:19:06.928Z,54.60
2019-05-03T17:21:36.367Z,54.93
2019-05-03T17:24:06.327Z,55.75
2019-05-03T17:26:35.882Z,56.61
2019-05-03T17:29:05.334Z,56.70
2019-05-03T17:31:35.286Z,57.14
2019-05-03T17:34:05.528Z,56.71
2019-05-03T17:36:35.149Z,57.58
2019-05-03T17:39:08.969Z,58.60
2019-05-03T17:41:55.766Z,58.95
2019-05-03T17:44:29.465Z,59.38
2019-05-03T17:46:58.910Z,59.93
2019-05-03T17:49:28.358Z,59.81
2019-05-03T17:52:19.820Z,60.76
2019-05-03T17:55:08.108Z,60.91
2019-05-03T17:57:59.964Z,61.03
2019-05-03T18:00:47.039Z,60.82
2019-05-03T18:03:17.451Z,61.53
2019-05-03T18:05:55.013Z,60.63
2019-05-03T18:08:35.526Z,61.71
2019-05-03T18:11:08.852Z,61.31
2019-05-03T18:13:38.307Z,60.82
2019-05-03T18:16:07.734Z,61.87
2019-05-03T18:18:37.173Z,61.92
2019-05-03T18:21:06.582Z,62.50
2019-05-03T18:23:36.025Z,64.28
2019-05-03T18:26:05.448Z,64.24
2019-05-03T18:28:35.570Z,64.02
2019-05-03T18:31:06.351Z,63.73
2019-05-03T18:33:36.371Z,65.04
2019-05-03T18:36:05.866Z,64.67
2019-05-03T18:38:41.254Z,64.80
2019-05-03T18:41:11.910Z,64.39
2019-05-03T18:43:59.063Z,65.42
2019-05-03T18:46:33.539Z,64.74
2019-05-03T18:49:04.487Z,65.74
2019-05-03T18:51:34.403Z,65.99
2019-05-03T18:54:07.345Z,67.03
2019-05-03T18:56:36.875Z,66.79
2019-05-03T18:59:06.334Z,66.57
2019-05-03T19:01:35.759Z,67.30
2019-05-03T19:04:14.684Z,67.53
2019-05-03T19:06:45.171Z,67.05
2019-05-03T19:09:38.263Z,65.70
2019-05-03T19:12:32.481Z,67.64
2019-05-03T19:15:02.533Z,66.15
2019-05-03T19:17:54.700Z,65.34
2019-05-03T19:20:24.642Z,65.96
2019-05-03T19:22:54.458Z,66.30
2019-05-03T19:25:25.548Z,67.39
2019-05-03T19:27:55.166Z,67.39
2019-05-03T19:30:24.648Z,65.09
2019-05-03T19:32:55.148Z,64.70
2019-05-03T19:35:27.541Z,65.12
2019-05-03T19:37:55.829Z,64.87
2019-05-03T19:40:25.673Z,64.81
2019-05-03T19:42:55.284Z,64.35
2019-05-03T19:45:24.947Z,64.00
2019-05-03T19:47:55.246Z,64.33
2019-05-03T19:50:27.317Z,63.30
2019-05-03T19:53:05.174Z,64.98
2019-05-03T19:55:34.726Z,65.50
2019-05-03T19:58:05.455Z,63.80
2019-05-03T20:00:45.859Z,66.15
2019-05-03T20:03:18.905Z,67.62
2019-05-03T20:06:14.473Z,66.63
2019-05-03T20:08:47.939Z,66.01
2019-05-03T20:11:18.080Z,66.84
2019-05-03T20:13:47.554Z,65.04
2019-05-03T20:16:16.987Z,66.24
2019-05-03T20:18:46.427Z,66.88
2019-05-03T20:21:15.870Z,65.14
2019-05-03T20:23:47.163Z,64.41
2019-05-03T20:26:16.439Z,64.04
2019-05-03T20:28:45.930Z,63.62
2019-05-03T20:31:15.378Z,63.84
2019-05-03T20:33:45.753Z,63.42
2019-05-03T20:36:15.314Z,63.59
2019-05-03T20:38:44.759Z,61.82
2019-05-03T20:41:14.871Z,61.89
2019-05-03T20:44:06.116Z,61.89
2019-05-03T20:46:55.053Z,61.50
2019-05-03T20:49:25.466Z,61.79
2019-05-03T20:51:54.999Z,62.56
2019-05-03T20:54:24.410Z,61.63
2019-05-03T20:56:54.655Z,62.61
2019-05-03T20:59:25.302Z,64.31
2019-05-03T21:01:54.871Z,66.04
2019-05-03T21:04:24.723Z,67.47
2019-05-03T21:06:55.189Z,68.45
2019-05-03T21:09:24.859Z,69.21
2019-05-03T21:11:55.150Z,69.32
2019-05-03T21:14:24.696Z,69.54
2019-05-03T21:17:06.774Z,68.04
2019-05-03T21:19:46.129Z,72.21
2019-05-03T21:22:18.875Z,72.40
2019-05-03T21:24:56.782Z,71.47
2019-05-03T21:27:26.208Z,70.99
2019-05-03T21:29:55.623Z,71.79
2019-05-03T21:32:25.332Z,71.66
2019-05-03T21:34:55.720Z,71.91
2019-05-03T21:37:25.387Z,72.18
2019-05-03T21:39:54.995Z,71.62
2019-05-03T21:42:24.416Z,72.57
2019-05-03T21:44:55.487Z,71.23
2019-05-03T21:47:48.850Z,71.00
2019-05-03T21:50:19.291Z,72.05
2019-05-03T21:52:48.713Z,71.47
2019-05-03T21:55:18.184Z,72.92
2019-05-03T21:57:47.687Z,72.11
2019-05-03T22:00:17.573Z,71.31
2019-05-03T22:02:47.122Z,71.28
2019-05-03T22:05:16.686Z,71.37
2019-05-03T22:07:45.271Z,71.13
2019-05-03T22:10:15.120Z,70.90
2019-05-03T22:12:43.710Z,71.23
2019-05-03T22:15:21.936Z,72.32
2019-05-03T22:18:09.026Z,72.88
2019-05-03T22:20:45.416Z,72.48
2019-05-03T22:23:20.933Z,72.19
2019-05-03T22:25:49.438Z,72.38
2019-05-03T22:28:18.878Z,72.10
2019-05-03T22:30:48.321Z,72.27
2019-05-03T22:33:17.773Z,72.35
2019-05-03T22:35:47.261Z,71.58
2019-05-03T22:38:16.698Z,73.22
2019-05-03T22:40:46.816Z,71.90
2019-05-03T22:46:24.917Z,71.32
2019-05-03T22:48:55.214Z,69.91
2019-05-03T22:51:24.623Z,70.16
2019-05-03T22:53:55.285Z,70.56
2019-05-03T22:56:25.253Z,71.01
2019-05-03T22:58:54.898Z,70.82
2019-05-03T23:01:25.602Z,70.73
2019-05-03T23:03:55.161Z,71.72
2019-05-03T23:06:25.186Z,72.54
2019-05-03T23:08:56.199Z,74.29
2019-05-03T23:11:25.700Z,75.43
2019-05-03T23:14:05.162Z,76.17
2019-05-03T23:16:35.697Z,76.96
2019-05-03T23:19:05.729Z,77.48
2019-05-03T23:21:49.720Z,78.08
2019-05-03T23:24:19.147Z,78.72
2019-05-03T23:26:48.631Z,79.19
2019-05-03T23:29:18.178Z,79.82
2019-05-03T23:31:47.602Z,80.64
2019-05-03T23:34:17.043Z,81.02
2019-05-03T23:36:46.479Z,81.71
2019-05-03T23:39:15.914Z,81.78
2019-05-03T23:41:45.352Z,81.83
2019-05-03T23:44:15.215Z,81.80
2019-05-03T23:46:52.141Z,81.93
2019-05-03T23:49:21.593Z,81.19
2019-05-03T23:51:52.767Z,81.61
2019-05-03T23:54:22.219Z,83.24
2019-05-03T23:56:51.706Z,84.55
2019-05-03T23:59:21.223Z,82.96
